Time;durP1;ratioP1;P1;durP2;ratioP2;P2;SDS_P1;SDS_P2;PMS_P1;PMS_P2;Temp;Humidity;BMP_temperature;BMP_pressure;BME280_temperature;BME280_humidity;BME280_pressure;Samples;Min_cycle;Max_cycle;Signal;HPM_P1;HPM_P2
2021/12/02 00:01:23;;;;;;;2.42;1.63;;;;;;;;;;5054332;28;20033;-37
2021/12/02 00:03:49;;;;;;;4.07;2.38;;;;;;;;;;5054252;28;20361;-36
2021/12/02 00:06:16;;;;;;;2.78;1.58;;;;;;;;;;5053839;28;20017;-37
2021/12/02 00:08:42;;;;;;;2.08;1.70;;;;;;;;;;5054116;28;20029;-37
2021/12/02 00:11:07;;;;;;;2.10;1.90;;;;;;;;;;5054111;28;20017;-37
2021/12/02 00:16:29;;;;;;;3.60;2.08;;;;;;;;;;5053778;28;20093;-36
2021/12/02 00:21:41;;;;;;;1.75;1.65;;;;;;;;;;5053496;28;20029;-37
2021/12/02 00:24:08;;;;;;;5.88;2.13;;;;;;;;;;5053919;28;20036;-37
2021/12/02 00:26:37;;;;;;;3.25;1.90;;;;;;;;;;5053412;28;20148;-37
2021/12/02 00:29:04;;;;;;;2.50;2.28;;;;;;;;;;5053415;28;20114;-36
2021/12/02 00:31:31;;;;;;;3.58;2.40;;;;;;;;;;5053667;28;20055;-37
2021/12/02 00:34:00;;;;;;;4.57;2.03;;;;;;;;;;5053430;28;20123;-37
2021/12/02 00:36:27;;;;;;;3.70;2.13;;;;;;;;;;5053683;28;20029;-37
2021/12/02 00:38:53;;;;;;;4.82;2.10;;;;;;;;;;5053038;28;20053;-37
2021/12/02 00:41:21;;;;;;;13.18;2.40;;;;;;;;;;5053207;28;20023;-37
2021/12/02 00:43:47;;;;;;;3.58;2.42;;;;;;;;;;5053380;28;20036;-37
2021/12/02 00:46:14;;;;;;;4.47;2.13;;;;;;;;;;5053279;28;20052;-37
2021/12/02 00:48:41;;;;;;;2.65;2.03;;;;;;;;;;5053020;28;20074;-37
2021/12/02 00:51:07;;;;;;;4.18;2.53;;;;;;;;;;5053015;28;20567;-37
2021/12/02 00:53:33;;;;;;;3.85;2.35;;;;;;;;;;5053048;28;20108;-36
2021/12/02 00:56:06;;;;;;;7.25;2.70;;;;;;;;;;5053230;28;20052;-40
2021/12/02 00:58:32;;;;;;;2.22;1.50;;;;;;;;;;5053093;28;20045;-36
2021/12/02 01:00:58;;;;;;;4.25;3.05;;;;;;;;;;5052943;28;20021;-36
2021/12/02 01:03:34;;;;;;;3.13;1.90;;;;;;;;;;5053079;28;20029;-43
2021/12/02 01:06:00;;;;;;;5.78;1.92;;;;;;;;;;5053133;28;20394;-37
2021/12/02 01:08:26;;;;;;;1.80;1.70;;;;;;;;;;5053071;28;20018;-36
2021/12/02 01:10:51;;;;;;;2.25;1.75;;;;;;;;;;5052810;28;20033;-36
2021/12/02 01:13:17;;;;;;;2.53;1.75;;;;;;;;;;5052997;28;20096;-37
2021/12/02 01:15:42;;;;;;;2.17;1.88;;;;;;;;;;5052889;28;20472;-36
2021/12/02 01:18:08;;;;;;;4.15;1.88;;;;;;;;;;5052720;28;20039;-36
2021/12/02 01:20:33;;;;;;;1.95;1.60;;;;;;;;;;5052402;28;20163;-36
2021/12/02 01:22:59;;;;;;;3.65;1.77;;;;;;;;;;5052520;28;20036;-36
2021/12/02 01:25:27;;;;;;;3.15;1.75;;;;;;;;;;5052706;28;20036;-37
2021/12/02 01:27:53;;;;;;;2.45;1.70;;;;;;;;;;5052626;28;20029;-37
2021/12/02 01:30:18;;;;;;;6.25;2.42;;;;;;;;;;5051049;28;20120;-36
2021/12/02 01:32:44;;;;;;;3.58;2.20;;;;;;;;;;5050902;28;20029;-37
2021/12/02 01:35:09;;;;;;;3.67;1.58;;;;;;;;;;5052372;28;20017;-37
2021/12/02 01:37:35;;;;;;;3.67;2.33;;;;;;;;;;5052009;28;20105;-37
2021/12/02 01:40:00;;;;;;;4.05;1.80;;;;;;;;;;5052367;28;20029;-37
2021/12/02 01:42:28;;;;;;;1.52;1.42;;;;;;;;;;5052148;28;20029;-37
2021/12/02 01:44:56;;;;;;;2.78;1.98;;;;;;;;;;5052381;28;20426;-37
2021/12/02 01:47:22;;;;;;;3.75;1.80;;;;;;;;;;5051547;28;20033;-37
2021/12/02 01:49:51;;;;;;;1.65;1.38;;;;;;;;;;5051885;28;20115;-37
2021/12/02 01:52:19;;;;;;;3.53;1.65;;;;;;;;;;5051955;28;20029;-37
2021/12/02 01:54:46;;;;;;;3.20;1.50;;;;;;;;;;5051747;28;20041;-37
2021/12/02 01:57:22;;;;;;;2.53;1.40;;;;;;;;;;5052119;28;20069;-37
2021/12/02 01:59:48;;;;;;;3.38;1.58;;;;;;;;;;5051704;28;20071;-37
2021/12/02 02:02:14;;;;;;;1.60;1.30;;;;;;;;;;5052001;28;20418;-37
2021/12/02 02:04:40;;;;;;;5.30;1.33;;;;;;;;;;5051661;28;20479;-37
2021/12/02 02:07:12;;;;;;;3.70;1.63;;;;;;;;;;5051658;28;20035;-37
2021/12/02 02:09:38;;;;;;;1.38;1.25;;;;;;;;;;5051895;28;20071;-37
2021/12/02 02:12:06;;;;;;;2.28;0.93;;;;;;;;;;5051741;28;20052;-37
2021/12/02 02:14:32;;;;;;;2.25;1.52;;;;;;;;;;5051728;28;20076;-37
2021/12/02 02:17:01;;;;;;;1.27;1.15;;;;;;;;;;5051837;28;20045;-37
2021/12/02 02:19:30;;;;;;;1.83;1.63;;;;;;;;;;5051496;28;20419;-37
2021/12/02 02:21:56;;;;;;;2.80;1.40;;;;;;;;;;5051728;28;20028;-37
2021/12/02 02:24:22;;;;;;;2.42;1.40;;;;;;;;;;5051480;28;20470;-37
2021/12/02 02:26:47;;;;;;;0.80;0.80;;;;;;;;;;5051373;28;20025;-37
2021/12/02 02:29:14;;;;;;;1.38;1.27;;;;;;;;;;5051359;28;20399;-37
2021/12/02 02:31:41;;;;;;;1.50;1.30;;;;;;;;;;5051388;28;20017;-37
2021/12/02 02:34:10;;;;;;;2.90;1.20;;;;;;;;;;5051674;28;20029;-36
2021/12/02 02:36:40;;;;;;;2.13;1.33;;;;;;;;;;5051048;28;20025;-37
2021/12/02 02:39:05;;;;;;;2.50;1.45;;;;;;;;;;5051213;28;20044;-37
2021/12/02 02:41:37;;;;;;;1.92;1.08;;;;;;;;;;5051542;28;20036;-36
2021/12/02 02:44:03;;;;;;;1.63;1.00;;;;;;;;;;5051203;28;20504;-36
2021/12/02 02:46:33;;;;;;;1.35;1.25;;;;;;;;;;5051447;28;20024;-36
2021/12/02 02:48:59;;;;;;;1.63;1.10;;;;;;;;;;5051173;28;20484;-36
2021/12/02 02:51:26;;;;;;;9.40;1.50;;;;;;;;;;5051202;28;20021;-37
2021/12/02 02:53:53;;;;;;;2.05;1.60;;;;;;;;;;5051155;28;20044;-36
2021/12/02 02:56:25;;;;;;;2.17;1.30;;;;;;;;;;5051436;28;20145;-36
2021/12/02 03:04:27;;;;;;;1.58;1.00;;;;;;;;;;5055387;28;20039;-37
2021/12/02 03:11:55;;;;;;;1.13;1.08;;;;;;;;;;5054874;28;20037;-37
2021/12/02 03:14:35;;;;;;;1.13;0.70;;;;;;;;;;5054910;28;20025;-36
2021/12/02 03:17:01;;;;;;;4.80;1.00;;;;;;;;;;5054893;28;20034;-36
2021/12/02 03:19:27;;;;;;;0.80;0.80;;;;;;;;;;5054797;28;20112;-37
2021/12/02 03:21:53;;;;;;;0.70;0.70;;;;;;;;;;5054787;28;20025;-37
2021/12/02 03:24:18;;;;;;;1.13;1.02;;;;;;;;;;5054834;28;20494;-37
2021/12/02 03:26:44;;;;;;;1.08;0.70;;;;;;;;;;5054594;28;20041;-37
2021/12/02 03:29:09;;;;;;;1.60;1.02;;;;;;;;;;5054951;28;20027;-37
2021/12/02 03:31:35;;;;;;;3.20;1.02;;;;;;;;;;5054832;28;20472;-37
2021/12/02 03:34:00;;;;;;;0.77;0.63;;;;;;;;;;5054523;28;20040;-37
2021/12/02 03:36:26;;;;;;;0.93;0.70;;;;;;;;;;5054576;28;20033;-37
2021/12/02 03:38:52;;;;;;;0.90;0.90;;;;;;;;;;5054120;28;20049;-37
2021/12/02 03:41:17;;;;;;;0.60;0.60;;;;;;;;;;5054702;28;20032;-37
2021/12/02 03:43:44;;;;;;;1.20;0.75;;;;;;;;;;5054325;28;20433;-37
2021/12/02 03:46:10;;;;;;;0.70;0.50;;;;;;;;;;5054667;28;20105;-36
2021/12/02 03:48:38;;;;;;;1.77;0.95;;;;;;;;;;5054449;28;20083;-36
2021/12/02 03:51:04;;;;;;;2.03;0.60;;;;;;;;;;5054265;28;20036;-37
2021/12/02 03:53:29;;;;;;;0.95;0.95;;;;;;;;;;5054448;28;20031;-36
2021/12/02 03:55:55;;;;;;;1.35;1.10;;;;;;;;;;5053988;28;20475;-40
2021/12/02 03:58:20;;;;;;;1.67;1.10;;;;;;;;;;5054373;28;20119;-36
2021/12/02 04:00:45;;;;;;;0.80;0.70;;;;;;;;;;5054215;28;20180;-36
2021/12/02 04:03:11;;;;;;;1.15;1.05;;;;;;;;;;5054237;28;20025;-37
2021/12/02 04:05:36;;;;;;;0.88;0.88;;;;;;;;;;5053917;28;20036;-36
2021/12/02 04:08:05;;;;;;;1.70;0.90;;;;;;;;;;5053000;28;20086;-37
2021/12/02 04:10:31;;;;;;;1.88;0.70;;;;;;;;;;5053698;28;20218;-37
2021/12/02 04:13:13;;;;;;;0.60;0.57;;;;;;;;;;5053818;28;20525;-36
2021/12/02 04:15:40;;;;;;;1.05;0.80;;;;;;;;;;5053707;28;20029;-37
2021/12/02 04:18:06;;;;;;;0.43;0.43;;;;;;;;;;5054006;28;20029;-37
2021/12/02 04:20:32;;;;;;;0.57;0.57;;;;;;;;;;5053903;28;20109;-36
2021/12/02 04:22:58;;;;;;;0.50;0.50;;;;;;;;;;5053627;28;20468;-36
2021/12/02 04:25:24;;;;;;;1.48;0.70;;;;;;;;;;5052402;28;20034;-37
2021/12/02 04:27:50;;;;;;;1.10;0.50;;;;;;;;;;5053468;28;20017;-37
2021/12/02 04:30:17;;;;;;;0.47;0.47;;;;;;;;;;5053405;28;20518;-37
2021/12/02 04:32:42;;;;;;;1.58;0.63;;;;;;;;;;5053737;28;20017;-37
2021/12/02 04:35:08;;;;;;;0.95;0.70;;;;;;;;;;5053745;28;20117;-37
2021/12/02 04:37:33;;;;;;;0.63;0.63;;;;;;;;;;5053224;28;20510;-36
2021/12/02 04:39:59;;;;;;;0.70;0.70;;;;;;;;;;5053293;28;20535;-36
2021/12/02 04:42:24;;;;;;;2.30;1.70;;;;;;;;;;5053627;28;20440;-37
2021/12/02 04:44:50;;;;;;;1.25;0.70;;;;;;;;;;5053085;28;20041;-36
2021/12/02 04:47:16;;;;;;;1.10;0.70;;;;;;;;;;5052000;28;20123;-36
2021/12/02 04:49:41;;;;;;;0.88;0.82;;;;;;;;;;5053096;28;20037;-37
2021/12/02 04:52:07;;;;;;;0.70;0.68;;;;;;;;;;5053341;28;20032;-37
2021/12/02 04:54:33;;;;;;;0.60;0.60;;;;;;;;;;5053085;28;20036;-36
2021/12/02 04:56:59;;;;;;;1.25;0.77;;;;;;;;;;5053196;28;20407;-37
2021/12/02 04:59:24;;;;;;;0.43;0.43;;;;;;;;;;5052874;28;20037;-37
2021/12/02 05:01:49;;;;;;;1.35;0.77;;;;;;;;;;5053237;28;20028;-38
2021/12/02 05:04:14;;;;;;;1.40;0.70;;;;;;;;;;5053170;28;20109;-37
2021/12/02 05:06:40;;;;;;;0.63;0.60;;;;;;;;;;5051498;28;20481;-37
2021/12/02 05:09:05;;;;;;;1.42;0.80;;;;;;;;;;5052818;28;20024;-37
2021/12/02 05:11:30;;;;;;;0.95;0.65;;;;;;;;;;5053025;28;20032;-37
2021/12/02 05:13:56;;;;;;;0.60;0.60;;;;;;;;;;5052569;28;20075;-37
2021/12/02 05:16:21;;;;;;;0.50;0.50;;;;;;;;;;5052676;28;20115;-37
2021/12/02 05:18:46;;;;;;;0.50;0.50;;;;;;;;;;5052715;28;20134;-37
2021/12/02 05:21:12;;;;;;;1.02;0.93;;;;;;;;;;5052370;28;20025;-37
2021/12/02 05:23:37;;;;;;;0.65;0.50;;;;;;;;;;5052349;28;20479;-36
2021/12/02 05:26:03;;;;;;;0.82;0.70;;;;;;;;;;5052509;28;20023;-36
2021/12/02 05:28:28;;;;;;;0.57;0.50;;;;;;;;;;5052402;28;20029;-37
2021/12/02 05:30:53;;;;;;;0.30;0.30;;;;;;;;;;5052642;28;20037;-37
2021/12/02 05:33:19;;;;;;;0.60;0.60;;;;;;;;;;5052613;28;20434;-36
2021/12/02 05:35:44;;;;;;;0.45;0.45;;;;;;;;;;5052289;28;20021;-37
2021/12/02 05:38:10;;;;;;;0.70;0.70;;;;;;;;;;5052182;28;20057;-37
2021/12/02 05:40:35;;;;;;;2.08;0.50;;;;;;;;;;5052348;28;20524;-37
2021/12/02 05:43:01;;;;;;;0.30;0.30;;;;;;;;;;5052172;28;20084;-37
2021/12/02 05:45:26;;;;;;;0.45;0.45;;;;;;;;;;5052194;28;20099;-37
2021/12/02 05:47:52;;;;;;;0.55;0.55;;;;;;;;;;5051919;28;20032;-37
2021/12/02 05:50:17;;;;;;;0.60;0.60;;;;;;;;;;5052015;28;20036;-37
2021/12/02 05:52:43;;;;;;;0.63;0.52;;;;;;;;;;5051938;28;20075;-37
2021/12/02 05:55:08;;;;;;;0.45;0.45;;;;;;;;;;5052201;28;20040;-37
2021/12/02 05:57:33;;;;;;;0.68;0.40;;;;;;;;;;5052023;28;20495;-37
2021/12/02 05:59:59;;;;;;;1.02;0.50;;;;;;;;;;5052094;28;20044;-37
2021/12/02 06:02:25;;;;;;;0.45;0.45;;;;;;;;;;5052087;28;20418;-37
2021/12/02 06:04:52;;;;;;;0.40;0.40;;;;;;;;;;5051738;28;20415;-37
2021/12/02 06:07:19;;;;;;;0.40;0.40;;;;;;;;;;5051738;28;20537;-37
2021/12/02 06:09:44;;;;;;;0.40;0.40;;;;;;;;;;5051829;28;20427;-39
2021/12/02 06:12:10;;;;;;;0.40;0.40;;;;;;;;;;5051707;28;20037;-37
2021/12/02 06:14:35;;;;;;;0.50;0.50;;;;;;;;;;5051540;28;20074;-36
2021/12/02 06:17:01;;;;;;;0.40;0.40;;;;;;;;;;5051477;28;20091;-37
2021/12/02 06:19:26;;;;;;;0.60;0.30;;;;;;;;;;5051518;28;20039;-37
2021/12/02 06:21:51;;;;;;;0.20;0.20;;;;;;;;;;5051477;28;20033;-37
2021/12/02 06:24:17;;;;;;;1.55;0.68;;;;;;;;;;5051509;28;20044;-37
2021/12/02 06:26:43;;;;;;;0.70;0.70;;;;;;;;;;5051614;28;20111;-37
2021/12/02 06:29:08;;;;;;;0.73;0.40;;;;;;;;;;5051682;28;20391;-37
2021/12/02 06:31:34;;;;;;;0.50;0.40;;;;;;;;;;5051556;28;20033;-37
2021/12/02 06:33:59;;;;;;;0.30;0.30;;;;;;;;;;5051311;28;20016;-37
2021/12/02 06:36:25;;;;;;;0.50;0.50;;;;;;;;;;5051463;28;20128;-37
2021/12/02 06:38:50;;;;;;;1.05;0.60;;;;;;;;;;5050727;28;20143;-37
2021/12/02 06:41:18;;;;;;;0.47;0.47;;;;;;;;;;5051333;28;20075;-37
2021/12/02 06:43:43;;;;;;;0.65;0.50;;;;;;;;;;5051805;28;20455;-37
2021/12/02 06:46:08;;;;;;;0.50;0.50;;;;;;;;;;5051273;28;20025;-37
2021/12/02 06:48:34;;;;;;;0.40;0.40;;;;;;;;;;5051549;28;20033;-36
2021/12/02 06:50:59;;;;;;;1.63;1.30;;;;;;;;;;5051235;28;20044;-37
2021/12/02 06:53:25;;;;;;;1.10;0.55;;;;;;;;;;5051204;28;20155;-37
2021/12/02 06:55:50;;;;;;;0.40;0.40;;;;;;;;;;5051021;28;20052;-36
2021/12/02 06:58:16;;;;;;;1.15;0.40;;;;;;;;;;5051114;28;20060;-37
2021/12/02 07:00:41;;;;;;;0.60;0.32;;;;;;;;;;5051035;28;20041;-37
2021/12/02 07:03:06;;;;;;;0.35;0.35;;;;;;;;;;5051381;28;20032;-37
2021/12/02 07:05:33;;;;;;;0.30;0.30;;;;;;;;;;5051399;28;20048;-37
2021/12/02 07:08:06;;;;;;;0.30;0.30;;;;;;;;;;5051023;28;20131;-37
2021/12/02 07:10:33;;;;;;;;;;;;;;;;;;5051716;28;20387;-36
2021/12/02 07:12:59;;;;;;;0.30;0.30;;;;;;;;;;5050905;28;19904;-37
2021/12/02 07:15:31;;;;;;;0.30;0.30;;;;;;;;;;5051029;28;20033;-37
2021/12/02 07:17:58;;;;;;;0.50;0.50;;;;;;;;;;5051128;28;20044;-37
2021/12/02 07:20:25;;;;;;;0.50;0.50;;;;;;;;;;5051104;28;20014;-36
2021/12/02 07:22:50;;;;;;;0.30;0.30;;;;;;;;;;5050865;28;20045;-36
2021/12/02 07:25:16;;;;;;;0.30;0.30;;;;;;;;;;5051216;28;20028;-37
2021/12/02 07:27:42;;;;;;;0.63;0.50;;;;;;;;;;5050716;28;20487;-36
2021/12/02 07:30:08;;;;;;;0.30;0.30;;;;;;;;;;5050941;28;20048;-36
2021/12/02 07:32:36;;;;;;;0.45;0.40;;;;;;;;;;5051140;28;20475;-37
2021/12/02 07:35:03;;;;;;;0.40;0.38;;;;;;;;;;5050788;28;20467;-36
2021/12/02 07:37:29;;;;;;;0.47;0.47;;;;;;;;;;5050551;28;20048;-37
2021/12/02 07:39:55;;;;;;;0.75;0.50;;;;;;;;;;5049329;28;20151;-36
2021/12/02 07:42:21;;;;;;;0.63;0.40;;;;;;;;;;5050812;28;20641;-37
2021/12/02 07:44:46;;;;;;;0.30;0.30;;;;;;;;;;5051028;28;20021;-37
2021/12/02 07:47:12;;;;;;;0.43;0.43;;;;;;;;;;5054721;28;20128;-37
2021/12/02 07:49:37;;;;;;;0.45;0.45;;;;;;;;;;5054148;28;20349;-37
2021/12/02 07:52:04;;;;;;;0.35;0.35;;;;;;;;;;5054368;28;20025;-37
2021/12/02 07:54:33;;;;;;;0.60;0.60;;;;;;;;;;5054271;28;20021;-37
2021/12/02 07:56:58;;;;;;;0.60;0.60;;;;;;;;;;5054283;28;20384;-37
2021/12/02 07:59:24;;;;;;;0.50;0.50;;;;;;;;;;5054135;28;20037;-36
2021/12/02 08:01:50;;;;;;;0.55;0.50;;;;;;;;;;5054349;28;20489;-36
2021/12/02 08:04:16;;;;;;;0.52;0.52;;;;;;;;;;5054263;28;20029;-37
2021/12/02 08:06:41;;;;;;;0.30;0.30;;;;;;;;;;5053981;28;20029;-36
2021/12/02 08:09:11;;;;;;;0.35;0.35;;;;;;;;;;5053924;28;20036;-37
2021/12/02 08:11:36;;;;;;;0.82;0.40;;;;;;;;;;5053794;28;20029;-37
2021/12/02 08:14:02;;;;;;;0.55;0.45;;;;;;;;;;5052734;28;20021;-37
2021/12/02 08:16:28;;;;;;;0.50;0.50;;;;;;;;;;5053804;28;20578;-37
2021/12/02 08:18:54;;;;;;;0.50;0.50;;;;;;;;;;5053479;28;20068;-36
2021/12/02 08:21:19;;;;;;;0.65;0.65;;;;;;;;;;5053833;28;20031;-37
2021/12/02 08:23:45;;;;;;;0.38;0.38;;;;;;;;;;5053616;28;20563;-37
2021/12/02 08:26:13;;;;;;;0.50;0.50;;;;;;;;;;5053932;28;20021;-37
2021/12/02 08:28:38;;;;;;;0.52;0.50;;;;;;;;;;5053719;28;20024;-37
2021/12/02 08:31:04;;;;;;;1.33;0.82;;;;;;;;;;5052355;28;20063;-37
2021/12/02 08:33:29;;;;;;;0.60;0.60;;;;;;;;;;5053535;28;20467;-37
2021/12/02 08:35:55;;;;;;;0.40;0.40;;;;;;;;;;5052126;28;20037;-37
2021/12/02 08:38:29;;;;;;;0.40;0.30;;;;;;;;;;5053237;28;20389;-37
2021/12/02 08:40:54;;;;;;;0.50;0.50;;;;;;;;;;5053213;28;20419;-37
2021/12/02 08:43:20;;;;;;;1.30;0.43;;;;;;;;;;5053636;28;20029;-36
2021/12/02 08:45:45;;;;;;;0.50;0.50;;;;;;;;;;5053410;28;20029;-37
2021/12/02 08:48:11;;;;;;;0.40;0.40;;;;;;;;;;5053491;28;20514;-36
2021/12/02 08:50:38;;;;;;;0.40;0.40;;;;;;;;;;5053366;28;20033;-38
2021/12/02 08:53:04;;;;;;;0.30;0.30;;;;;;;;;;5053417;28;20032;-36
2021/12/02 08:55:33;;;;;;;0.30;0.30;;;;;;;;;;5053121;28;20483;-37
2021/12/02 08:58:00;;;;;;;0.40;0.40;;;;;;;;;;5052879;28;20021;-36
2021/12/02 09:00:27;;;;;;;0.30;0.30;;;;;;;;;;5051711;28;20478;-37
2021/12/02 09:02:53;;;;;;;1.40;0.60;;;;;;;;;;5053115;28;20456;-38
2021/12/02 09:05:19;;;;;;;0.40;0.35;;;;;;;;;;5053225;28;20039;-37
2021/12/02 09:07:44;;;;;;;0.35;0.35;;;;;;;;;;5052752;28;20467;-37
2021/12/02 09:10:10;;;;;;;0.43;0.43;;;;;;;;;;5053065;28;20095;-36
2021/12/02 09:12:35;;;;;;;0.45;0.45;;;;;;;;;;5053025;28;20379;-37
2021/12/02 09:15:01;;;;;;;0.20;0.20;;;;;;;;;;5052617;28;20368;-37
2021/12/02 09:17:27;;;;;;;0.35;0.35;;;;;;;;;;5052603;28;20033;-37
2021/12/02 09:19:52;;;;;;;0.30;0.30;;;;;;;;;;5052809;28;20033;-37
2021/12/02 09:22:18;;;;;;;0.38;0.35;;;;;;;;;;5052523;28;20455;-37
2021/12/02 09:24:43;;;;;;;1.42;0.85;;;;;;;;;;5052735;28;20104;-37
2021/12/02 09:27:09;;;;;;;0.22;0.22;;;;;;;;;;5052832;28;20383;-37
2021/12/02 09:29:34;;;;;;;0.65;0.30;;;;;;;;;;5052600;28;20117;-37
2021/12/02 09:32:01;;;;;;;0.40;0.40;;;;;;;;;;5052408;28;20509;-37
2021/12/02 09:34:26;;;;;;;0.55;0.50;;;;;;;;;;5052422;28;20090;-36
2021/12/02 09:36:52;;;;;;;0.98;0.30;;;;;;;;;;5051924;28;20472;-37
2021/12/02 09:39:18;;;;;;;1.60;0.60;;;;;;;;;;5052415;28;20479;-37
2021/12/02 09:41:45;;;;;;;0.40;0.40;;;;;;;;;;5052368;28;20056;-37
2021/12/02 09:44:10;;;;;;;0.40;0.30;;;;;;;;;;5052174;28;20033;-36
2021/12/02 09:46:37;;;;;;;1.65;0.73;;;;;;;;;;5052215;28;20032;-37
2021/12/02 09:49:03;;;;;;;0.40;0.40;;;;;;;;;;5052039;28;20543;-37
2021/12/02 09:51:38;;;;;;;0.82;0.50;;;;;;;;;;5051938;28;20117;-37
2021/12/02 09:54:08;;;;;;;0.30;0.30;;;;;;;;;;5052265;28;20039;-36
2021/12/02 09:56:36;;;;;;;2.30;0.40;;;;;;;;;;5051990;28;20062;-37
2021/12/02 09:59:09;;;;;;;0.98;0.63;;;;;;;;;;5051643;28;20498;-37
2021/12/02 10:01:47;;;;;;;;;;;;;;;;;;5052351;28;20407;-36
2021/12/02 10:04:13;;;;;;;0.50;0.50;;;;;;;;;;5052013;28;19932;-37
2021/12/02 10:06:41;;;;;;;0.73;0.73;;;;;;;;;;5051716;28;20021;-37
2021/12/02 10:09:40;;;;;;;0.70;0.63;;;;;;;;;;5051672;28;20040;-36
2021/12/02 10:12:14;;;;;;;1.65;0.57;;;;;;;;;;5051705;28;20479;-37
2021/12/02 10:14:44;;;;;;;0.65;0.60;;;;;;;;;;5051923;28;20029;-38
2021/12/02 10:17:47;;;;;;;1.30;0.68;;;;;;;;;;5051622;28;20070;-37
2021/12/02 10:20:38;;;;;;;1.27;0.90;;;;;;;;;;5051852;28;20037;-37
2021/12/02 10:23:04;;;;;;;2.40;0.68;;;;;;;;;;5051650;28;20047;-37
2021/12/02 10:25:30;;;;;;;0.82;0.40;;;;;;;;;;5051484;28;20112;-37
2021/12/02 10:28:04;;;;;;;0.50;0.50;;;;;;;;;;5051692;28;20391;-36
2021/12/02 10:30:29;;;;;;;1.40;0.50;;;;;;;;;;5051547;28;20033;-37
2021/12/02 10:32:55;;;;;;;0.57;0.57;;;;;;;;;;5051319;28;20091;-37
2021/12/02 10:35:45;;;;;;;0.70;0.45;;;;;;;;;;5051426;28;20059;-37
2021/12/02 10:38:29;;;;;;;5.00;0.82;;;;;;;;;;5051224;28;20086;-36
2021/12/02 10:41:00;;;;;;;0.55;0.47;;;;;;;;;;5051164;28;20025;-36
2021/12/02 10:43:26;;;;;;;0.80;0.80;;;;;;;;;;5051304;28;20029;-36
2021/12/02 10:45:51;;;;;;;0.30;0.30;;;;;;;;;;5051272;28;20087;-36
2021/12/02 10:48:19;;;;;;;0.45;0.45;;;;;;;;;;5051427;28;20100;-37
2021/12/02 10:50:45;;;;;;;0.65;0.65;;;;;;;;;;5051529;28;20383;-37
2021/12/02 10:53:10;;;;;;;0.50;0.50;;;;;;;;;;5051144;28;20021;-36
2021/12/02 10:55:36;;;;;;;0.60;0.60;;;;;;;;;;5051402;28;20040;-37
2021/12/02 10:58:02;;;;;;;1.77;0.60;;;;;;;;;;5050945;28;20383;-37
2021/12/02 11:00:35;;;;;;;0.60;0.60;;;;;;;;;;5051173;28;20029;-37
2021/12/02 11:03:07;;;;;;;0.60;0.60;;;;;;;;;;5051095;28;20025;-36
2021/12/02 11:05:33;;;;;;;0.30;0.30;;;;;;;;;;5051146;28;20021;-37
2021/12/02 11:08:04;;;;;;;0.30;0.30;;;;;;;;;;5051161;28;20052;-36
2021/12/02 11:10:39;;;;;;;4.35;1.10;;;;;;;;;;5051348;28;20068;-37
2021/12/02 11:13:06;;;;;;;0.50;0.50;;;;;;;;;;5051122;28;20580;-36
2021/12/02 11:15:33;;;;;;;0.90;0.90;;;;;;;;;;5051288;28;20096;-36
2021/12/02 11:18:06;;;;;;;0.80;0.43;;;;;;;;;;5050772;28;20140;-36
2021/12/02 11:20:33;;;;;;;0.60;0.60;;;;;;;;;;5052677;28;20028;-36
2021/12/02 11:23:03;;;;;;;0.50;0.50;;;;;;;;;;5054701;28;20029;-37
2021/12/02 11:25:29;;;;;;;0.40;0.40;;;;;;;;;;5054761;28;20106;-36
2021/12/02 11:27:55;;;;;;;0.63;0.60;;;;;;;;;;5054604;28;20483;-36
2021/12/02 11:30:24;;;;;;;0.65;0.63;;;;;;;;;;5054956;28;20033;-36
2021/12/02 11:32:49;;;;;;;0.40;0.40;;;;;;;;;;5054610;28;20036;-37
2021/12/02 11:35:16;;;;;;;0.98;0.70;;;;;;;;;;5054631;28;20084;-37
2021/12/02 11:37:43;;;;;;;0.70;0.70;;;;;;;;;;5054079;28;20044;-37
2021/12/02 11:40:11;;;;;;;0.55;0.55;;;;;;;;;;5054548;28;20525;-37
2021/12/02 11:42:38;;;;;;;0.38;0.38;;;;;;;;;;5054811;28;20428;-37
2021/12/02 11:45:04;;;;;;;0.80;0.80;;;;;;;;;;5053349;28;20033;-37
2021/12/02 11:47:30;;;;;;;0.40;0.40;;;;;;;;;;5054469;28;20785;-36
2021/12/02 11:49:56;;;;;;;0.50;0.40;;;;;;;;;;5054182;28;20037;-37
2021/12/02 11:52:21;;;;;;;0.70;0.32;;;;;;;;;;5054269;28;20029;-37
2021/12/02 11:54:46;;;;;;;0.95;0.88;;;;;;;;;;5054455;28;20060;-37
2021/12/02 11:57:12;;;;;;;1.10;0.95;;;;;;;;;;5054177;28;20353;-36
2021/12/02 11:59:38;;;;;;;0.40;0.40;;;;;;;;;;5054076;28;20063;-37
2021/12/02 12:02:03;;;;;;;2.30;0.55;;;;;;;;;;5054047;28;20356;-37
2021/12/02 12:04:35;;;;;;;0.55;0.55;;;;;;;;;;5054397;28;20033;-37
2021/12/02 12:07:11;;;;;;;0.60;0.60;;;;;;;;;;5053894;28;20032;-37
2021/12/02 12:09:36;;;;;;;0.80;0.80;;;;;;;;;;5053992;28;20068;-37
2021/12/02 12:12:03;;;;;;;0.93;0.70;;;;;;;;;;5053814;28;20059;-36
2021/12/02 12:14:41;;;;;;;0.80;0.80;;;;;;;;;;5054216;28;20442;-36
2021/12/02 12:17:14;;;;;;;0.40;0.40;;;;;;;;;;5054138;28;20021;-37
2021/12/02 12:19:39;;;;;;;;;;;;;;;;;;5054020;28;20033;-36
2021/12/02 12:22:07;;;;;;;0.82;0.80;;;;;;;;;;5053765;28;19908;-37
2021/12/02 12:24:40;;;;;;;2.15;0.90;;;;;;;;;;5053745;28;20029;-38
2021/12/02 12:27:05;;;;;;;;;;;;;;;;;;5054319;28;20666;-37
2021/12/02 12:29:31;;;;;;;0.65;0.52;;;;;;;;;;5053589;28;19915;-36
2021/12/02 12:32:11;;;;;;;0.60;0.60;;;;;;;;;;5053256;28;20045;-37
2021/12/02 12:34:51;;;;;;;2.53;2.33;;;;;;;;;;5053774;28;20025;-36
2021/12/02 12:37:30;;;;;;;1.52;0.70;;;;;;;;;;5053276;28;20052;-37
2021/12/02 12:40:05;;;;;;;0.80;0.57;;;;;;;;;;5053293;28;20041;-37
2021/12/02 12:42:32;;;;;;;0.90;0.90;;;;;;;;;;5053440;28;20562;-37
2021/12/02 12:44:58;;;;;;;1.00;0.60;;;;;;;;;;5053232;28;20021;-37
2021/12/02 12:47:39;;;;;;;2.30;0.60;;;;;;;;;;5053303;28;20032;-37
2021/12/02 12:50:20;;;;;;;1.60;1.13;;;;;;;;;;5053072;28;20072;-37
2021/12/02 12:52:45;;;;;;;1.45;0.68;;;;;;;;;;5053121;28;20550;-37
2021/12/02 12:55:17;;;;;;;1.17;0.65;;;;;;;;;;5053048;28;20116;-37
2021/12/02 12:58:02;;;;;;;0.70;0.70;;;;;;;;;;5052931;28;20605;-37
2021/12/02 13:00:36;;;;;;;2.88;1.02;;;;;;;;;;5052971;28;20052;-37
2021/12/02 13:03:09;;;;;;;0.95;0.75;;;;;;;;;;5053097;28;20433;-37
2021/12/02 13:05:52;;;;;;;1.00;0.75;;;;;;;;;;5052951;28;20080;-36
2021/12/02 13:08:20;;;;;;;1.10;1.00;;;;;;;;;;5052697;28;20167;-37
2021/12/02 13:10:52;;;;;;;1.45;0.93;;;;;;;;;;5051472;28;20029;-37
2021/12/02 13:13:26;;;;;;;1.17;1.05;;;;;;;;;;5052791;28;20028;-36
2021/12/02 13:16:07;;;;;;;3.08;1.77;;;;;;;;;;5052693;28;20028;-37
2021/12/02 13:18:33;;;;;;;1.23;0.70;;;;;;;;;;5052635;28;20036;-37
2021/12/02 13:21:21;;;;;;;0.63;0.63;;;;;;;;;;5052543;28;20463;-37
2021/12/02 13:23:53;;;;;;;0.55;0.50;;;;;;;;;;5052681;28;20485;-36
2021/12/02 13:26:19;;;;;;;1.77;0.80;;;;;;;;;;5051332;28;20040;-37
2021/12/02 13:28:46;;;;;;;0.60;0.50;;;;;;;;;;5052413;28;20040;-37
2021/12/02 13:31:12;;;;;;;0.60;0.60;;;;;;;;;;5052254;28;20471;-37
2021/12/02 13:33:50;;;;;;;1.00;0.70;;;;;;;;;;5052385;28;20124;-37
2021/12/02 13:36:18;;;;;;;2.97;0.70;;;;;;;;;;5052398;28;20075;-36
2021/12/02 13:38:58;;;;;;;0.50;0.45;;;;;;;;;;5051891;28;20067;-37
2021/12/02 13:41:23;;;;;;;0.50;0.50;;;;;;;;;;5052291;28;20482;-37
2021/12/02 13:44:01;;;;;;;1.73;1.10;;;;;;;;;;5051723;28;20021;-37
2021/12/02 13:46:31;;;;;;;1.35;0.77;;;;;;;;;;5052162;28;20036;-37
2021/12/02 13:48:59;;;;;;;1.50;0.80;;;;;;;;;;5052012;28;20021;-38
2021/12/02 13:54:20;;;;;;;0.70;0.70;;;;;;;;;;5052008;28;20056;-37
2021/12/02 13:56:45;;;;;;;0.60;0.60;;;;;;;;;;5051912;28;20029;-37
2021/12/02 13:59:14;;;;;;;0.98;0.80;;;;;;;;;;5052021;28;20055;-36
2021/12/02 14:01:49;;;;;;;0.80;0.73;;;;;;;;;;5051832;28;20035;-37
2021/12/02 14:04:15;;;;;;;1.13;0.73;;;;;;;;;;5051874;28;20121;-37
2021/12/02 14:06:41;;;;;;;0.40;0.40;;;;;;;;;;5051953;28;20103;-37
2021/12/02 14:09:14;;;;;;;0.50;0.50;;;;;;;;;;5050480;28;20037;-37
2021/12/02 14:11:39;;;;;;;0.75;0.50;;;;;;;;;;5052021;28;20499;-37
2021/12/02 14:14:05;;;;;;;0.50;0.50;;;;;;;;;;5051908;28;20025;-37
2021/12/02 14:16:30;;;;;;;1.25;0.77;;;;;;;;;;5051632;28;20043;-37
2021/12/02 14:19:07;;;;;;;1.20;1.10;;;;;;;;;;5051475;28;20111;-37
2021/12/02 14:21:33;;;;;;;0.50;0.50;;;;;;;;;;5051817;28;20025;-37
2021/12/02 14:23:58;;;;;;;1.08;0.65;;;;;;;;;;5051558;28;20645;-37
2021/12/02 14:26:29;;;;;;;1.45;0.93;;;;;;;;;;5051556;28;20040;-37
2021/12/02 14:28:55;;;;;;;1.38;0.50;;;;;;;;;;5051412;28;20243;-37
2021/12/02 14:31:24;;;;;;;1.42;0.82;;;;;;;;;;5051540;28;20111;-37
2021/12/02 14:33:52;;;;;;;0.98;0.50;;;;;;;;;;5051602;28;20029;-37
2021/12/02 14:36:19;;;;;;;1.30;0.70;;;;;;;;;;5050215;28;20044;-40
2021/12/02 14:38:50;;;;;;;0.60;0.60;;;;;;;;;;5051116;28;20065;-37
2021/12/02 14:41:17;;;;;;;2.22;0.98;;;;;;;;;;5050022;28;20464;-37
2021/12/02 14:43:56;;;;;;;1.17;0.70;;;;;;;;;;5051583;28;20036;-37
2021/12/02 14:46:23;;;;;;;0.95;0.80;;;;;;;;;;5050912;28;20067;-37
2021/12/02 14:49:25;;;;;;;0.93;0.50;;;;;;;;;;5051094;28;20082;-37
2021/12/02 14:52:29;;;;;;;0.93;0.50;;;;;;;;;;5047822;28;20522;-36
2021/12/02 14:55:05;;;;;;;1.08;0.90;;;;;;;;;;5050262;28;20052;-37
2021/12/02 14:57:31;;;;;;;1.75;0.73;;;;;;;;;;5055265;28;20017;-37
2021/12/02 14:59:56;;;;;;;2.70;0.60;;;;;;;;;;5055537;28;20430;-37
2021/12/02 15:02:24;;;;;;;0.63;0.55;;;;;;;;;;5055503;28;20468;-36
2021/12/02 15:04:54;;;;;;;1.10;0.80;;;;;;;;;;5055127;28;20104;-37
2021/12/02 15:07:27;;;;;;;0.98;0.82;;;;;;;;;;5053907;28;20071;-37